Time;durP1;ratioP1;P1;durP2;ratioP2;P2;SDS_P1;SDS_P2;PMS_P1;PMS_P2;Temp;Humidity;BMP_temperature;BMP_pressure;BME280_temperature;BME280_humidity;BME280_pressure;Samples;Min_cycle;Max_cycle;Signal;HPM_P1;HPM_P2
2022/06/12 00:02:31;;;;;;;6.40;1.95;;;19.40;99.90;;;;;;6703794;88;20202;-78
2022/06/12 00:12:31;;;;;;;5.40;2.12;;;19.20;99.90;;;;;;6702625;88;20178;-78
2022/06/12 00:22:32;;;;;;;5.90;1.77;;;19.00;99.90;;;;;;6704126;88;20236;-78
2022/06/12 00:32:32;;;;;;;7.85;1.87;;;19.00;99.90;;;;;;6686291;88;20170;-77
2022/06/12 00:42:37;;;;;;;8.37;2.23;;;18.90;99.90;;;;;;6685964;88;20713;-77
2022/06/12 00:52:45;;;;;;;7.78;2.00;;;18.70;99.90;;;;;;6685655;88;20555;-78
2022/06/12 01:02:46;;;;;;;6.15;2.03;;;18.50;99.90;;;;;;6682496;88;20199;-77
2022/06/12 01:12:51;;;;;;;8.40;2.30;;;18.30;99.90;;;;;;6685848;88;20280;-78
2022/06/12 01:23:27;;;;;;;9.52;2.28;;;18.20;99.90;;;;;;6685651;89;20711;-77
2022/06/12 01:33:55;;;;;;;8.65;2.37;;;18.10;99.90;;;;;;6685839;88;20815;-77
2022/06/12 01:44:04;;;;;;;7.65;2.58;;;17.90;99.90;;;;;;6681403;88;20220;-79
2022/06/12 01:54:16;;;;;;;7.70;2.75;;;17.80;99.90;;;;;;6692734;88;20706;-78
2022/06/12 02:04:38;;;;;;;8.15;2.67;;;17.70;99.90;;;;;;6682752;88;20739;-78
2022/06/12 02:14:46;;;;;;;8.05;2.95;;;17.50;99.90;;;;;;6684246;88;20186;-78
2022/06/12 02:24:51;;;;;;;10.07;2.78;;;17.40;99.90;;;;;;6684399;88;20219;-78
2022/06/12 02:34:57;;;;;;;8.30;2.75;;;17.20;99.90;;;;;;6682830;88;20783;-77
2022/06/12 02:45:05;;;;;;;8.05;3.15;;;17.00;99.90;;;;;;6683359;88;20245;-78
2022/06/12 02:55:24;;;;;;;6.47;2.70;;;16.90;99.90;;;;;;6686909;88;20166;-78
2022/06/12 03:05:30;;;;;;;8.10;3.00;;;17.00;99.90;;;;;;6686298;88;20788;-78
2022/06/12 03:15:41;;;;;;;6.90;2.97;;;17.20;99.90;;;;;;6687767;88;20216;-77
2022/06/12 03:25:53;;;;;;;8.50;3.10;;;17.10;99.90;;;;;;6684385;88;20213;-78
2022/06/12 03:36:05;;;;;;;9.40;3.33;;;16.70;99.90;;;;;;6690918;88;20216;-79
2022/06/12 03:46:16;;;;;;;11.07;3.15;;;16.70;99.90;;;;;;6690849;88;20197;-78
2022/06/12 04:07:01;;;;;;;9.07;3.05;;;16.80;99.90;;;;;;6690368;88;20207;-79
2022/06/12 04:17:04;;;;;;;9.33;3.40;;;16.60;99.90;;;;;;6687798;88;20175;-78
2022/06/12 04:27:20;;;;;;;11.63;3.53;;;16.50;99.90;;;;;;6686683;88;20650;-77
2022/06/12 04:37:25;;;;;;;11.05;3.47;;;16.40;99.90;;;;;;6685996;88;20345;-78
2022/06/12 04:47:27;;;;;;;10.73;3.20;;;16.60;99.90;;;;;;6687046;88;20722;-79
2022/06/12 04:57:27;;;;;;;7.90;2.90;;;16.50;99.90;;;;;;6686928;88;20701;-77
2022/06/12 05:07:28;;;;;;;9.15;2.85;;;16.60;99.90;;;;;;6685509;88;20264;-78
2022/06/12 05:17:28;;;;;;;8.02;2.70;;;16.60;99.90;;;;;;6683253;88;20206;-78
2022/06/12 05:27:31;;;;;;;10.23;3.22;;;16.60;99.90;;;;;;6684603;88;20220;-77
2022/06/12 05:48:34;;;;;;;11.60;3.10;;;16.70;99.90;;;;;;6733442;88;20275;-79
2022/06/12 05:58:36;;;;;;;8.82;2.90;;;16.90;99.90;;;;;;6732386;88;20172;-81
2022/06/12 06:08:37;;;;;;;9.25;2.80;;;17.50;99.90;;;;;;6715187;88;20273;-81
2022/06/12 06:18:40;;;;;;;7.78;2.67;;;18.10;99.90;;;;;;6711602;88;20174;-80
2022/06/12 06:28:41;;;;;;;10.23;2.58;;;18.90;99.90;;;;;;6714279;88;20793;-79
2022/06/12 06:38:43;;;;;;;10.55;2.67;;;19.10;99.90;;;;;;6714241;88;20233;-81
2022/06/12 06:48:44;;;;;;;9.23;3.05;;;19.50;99.90;;;;;;6713991;88;20212;-79
2022/06/12 06:58:45;;;;;;;14.77;2.30;;;19.90;99.90;;;;;;6717411;88;20170;-80
2022/06/12 07:08:45;;;;;;;9.07;2.65;;;20.40;99.90;;;;;;6726441;88;20222;-79
2022/06/12 07:18:46;;;;;;;8.80;2.60;;;20.70;99.90;;;;;;6731788;88;20162;-79
2022/06/12 07:28:47;;;;;;;10.45;2.28;;;21.00;99.90;;;;;;6728217;88;20204;-80
2022/06/12 07:38:49;;;;;;;9.07;2.40;;;22.50;99.90;;;;;;6710156;88;20856;-80
2022/06/12 07:48:49;;;;;;;6.22;2.28;;;22.40;99.90;;;;;;6720480;88;20907;-80
2022/06/12 07:58:51;;;;;;;10.02;2.33;;;22.40;99.90;;;;;;6719050;88;20299;-80
2022/06/12 08:08:52;;;;;;;10.25;2.28;;;22.50;99.90;;;;;;6725095;88;20191;-80
2022/06/12 08:18:52;;;;;;;9.25;2.47;;;23.80;97.80;;;;;;6712834;88;20198;-81
2022/06/12 08:28:57;;;;;;;7.57;1.80;;;24.10;94.90;;;;;;6699200;88;20202;-80
2022/06/12 08:38:58;;;;;;;6.85;1.80;;;24.10;93.50;;;;;;6692177;88;20598;-79
2022/06/12 08:49:31;;;;;;;6.70;1.65;;;24.80;92.80;;;;;;6692736;88;20366;-79
2022/06/12 08:59:57;;;;;;;6.37;1.50;;;24.80;92.10;;;;;;6691839;88;20778;-80
2022/06/12 09:10:10;;;;;;;7.97;1.80;;;25.00;91.50;;;;;;6687925;88;20187;-80
2022/06/12 09:20:31;;;;;;;;;;;25.80;90.30;;;;;;6692514;88;20187;-81
2022/06/12 09:30:39;;;;;;;5.35;1.60;;;25.40;90.30;;;;;;6693286;88;20633;-80
2022/06/12 09:40:48;;;;;;;6.50;1.60;;;26.60;90.20;;;;;;6688487;88;20183;-79
2022/06/12 09:51:01;;;;;;;6.55;1.75;;;27.10;87.50;;;;;;6687799;88;20200;-79
2022/06/12 10:01:13;;;;;;;6.00;1.50;;;27.40;84.20;;;;;;6712786;88;20203;-79
2022/06/12 10:11:17;;;;;;;3.60;1.40;;;26.80;85.20;;;;;;6693978;88;20235;-78
2022/06/12 10:21:23;;;;;;;5.20;1.12;;;26.80;85.60;;;;;;6709449;88;20732;-78
2022/06/12 10:31:23;;;;;;;3.55;1.00;;;26.80;83.10;;;;;;6705634;88;20179;-79
2022/06/12 10:41:28;;;;;;;3.55;1.00;;;27.80;81.00;;;;;;6708982;88;20196;-78
2022/06/12 10:51:36;;;;;;;4.28;1.05;;;27.90;77.50;;;;;;6705027;88;20648;-79
2022/06/12 11:09:48;;;;;;;3.22;0.93;;;28.20;73.30;;;;;;6792493;86;20272;-79
2022/06/12 11:20:13;;;;;;;2.47;0.93;;;28.40;72.70;;;;;;6773756;87;20285;-78
2022/06/12 11:30:25;;;;;;;3.42;0.90;;;28.50;70.50;;;;;;6785193;87;20211;-80
2022/06/12 11:40:51;;;;;;;3.05;1.00;;;29.10;71.00;;;;;;6770131;76;20384;-77
2022/06/12 11:51:11;;;;;;;2.12;0.75;;;28.90;68.40;;;;;;6748147;87;20790;-78
2022/06/12 12:01:27;;;;;;;1.67;0.75;;;29.80;67.10;;;;;;6749962;87;20697;-79
2022/06/12 12:11:38;;;;;;;2.62;0.80;;;29.00;66.00;;;;;;6759076;88;20196;-83
2022/06/12 12:21:52;;;;;;;4.20;1.00;;;30.00;64.60;;;;;;6742478;88;20203;-78
2022/06/12 12:31:55;;;;;;;3.22;1.00;;;30.20;64.90;;;;;;6738463;88;20199;-82
2022/06/12 12:41:56;;;;;;;3.53;1.08;;;29.90;62.10;;;;;;6754879;88;20624;-80
2022/06/12 12:52:16;;;;;;;5.83;1.00;;;29.90;60.80;;;;;;6742516;88;20677;-79
2022/06/12 13:02:23;;;;;;;3.75;1.02;;;29.50;61.60;;;;;;6751376;88;20181;-79
2022/06/12 13:12:41;;;;;;;3.08;0.90;;;29.20;62.20;;;;;;6731860;88;20648;-78
2022/06/12 13:23:08;;;;;;;4.72;1.50;;;29.50;62.70;;;;;;6738482;88;20202;-80
2022/06/12 13:33:15;;;;;;;5.25;1.45;;;29.80;62.90;;;;;;6733887;88;20232;-76
2022/06/12 13:43:22;;;;;;;3.25;0.90;;;30.50;62.70;;;;;;6727039;88;20675;-77
2022/06/12 13:53:23;;;;;;;3.75;1.30;;;30.20;60.80;;;;;;6728854;88;20744;-76
2022/06/12 14:03:35;;;;;;;4.15;1.23;;;30.40;61.70;;;;;;6728570;88;20166;-76
2022/06/12 14:13:41;;;;;;;4.60;1.40;;;30.00;63.90;;;;;;6727600;88;20203;-75
2022/06/12 14:23:48;;;;;;;9.35;1.35;;;30.70;62.90;;;;;;6725064;88;20192;-74
2022/06/12 14:33:53;;;;;;;5.75;1.33;;;30.20;62.90;;;;;;6729549;88;20688;-74
2022/06/12 14:43:56;;;;;;;4.85;1.40;;;29.60;65.10;;;;;;6728228;88;20238;-74
2022/06/12 14:53:56;;;;;;;4.40;1.30;;;30.10;64.60;;;;;;6728407;88;20251;-74
2022/06/12 15:03:58;;;;;;;4.53;1.20;;;29.20;63.10;;;;;;6729138;88;20238;-74
2022/06/12 15:13:59;;;;;;;6.17;1.40;;;28.90;61.80;;;;;;6725324;88;20588;-76
2022/06/12 15:23:59;;;;;;;3.87;1.35;;;28.90;61.30;;;;;;6725583;88;20401;-76
2022/06/12 15:34:00;;;;;;;4.57;1.40;;;28.70;63.60;;;;;;6729941;88;20909;-77
2022/06/12 15:44:00;;;;;;;4.68;1.50;;;28.40;63.50;;;;;;6735811;88;20205;-78
2022/06/12 15:54:01;;;;;;;6.50;1.60;;;28.40;65.10;;;;;;6734946;88;20207;-78
2022/06/12 16:04:04;;;;;;;6.20;1.50;;;28.00;65.90;;;;;;6731196;88;20298;-78
2022/06/12 16:14:05;;;;;;;5.72;1.40;;;28.90;64.20;;;;;;6734178;88;20291;-77
2022/06/12 16:24:05;;;;;;;5.40;1.30;;;29.30;64.80;;;;;;6734239;88;20766;-77
2022/06/12 16:34:06;;;;;;;5.03;1.40;;;28.00;65.60;;;;;;6728941;88;20223;-77
2022/06/12 16:44:06;;;;;;;6.78;1.70;;;27.80;65.60;;;;;;6730953;88;20212;-77
2022/06/12 16:54:07;;;;;;;6.10;1.30;;;27.10;66.70;;;;;;6733675;88;20203;-77
2022/06/12 17:04:09;;;;;;;6.68;1.58;;;26.80;66.50;;;;;;6733295;88;20192;-77
2022/06/12 17:14:09;;;;;;;9.23;2.37;;;26.90;66.90;;;;;;6731123;88;20190;-77
2022/06/12 17:24:10;;;;;;;4.32;1.48;;;26.70;66.30;;;;;;6734071;88;20210;-78
2022/06/12 17:34:11;;;;;;;5.97;1.70;;;26.60;66.90;;;;;;6731256;88;20803;-78
2022/06/12 17:44:15;;;;;;;5.60;1.60;;;25.60;67.30;;;;;;6724938;88;20265;-78
2022/06/12 17:54:17;;;;;;;6.50;1.58;;;26.70;66.50;;;;;;6731967;88;20320;-79
2022/06/12 18:04:19;;;;;;;5.90;2.05;;;25.40;67.70;;;;;;6733493;88;20369;-78
2022/06/12 18:14:19;;;;;;;4.70;1.52;;;24.70;69.50;;;;;;6735547;88;20238;-79
2022/06/12 18:24:24;;;;;;;4.43;1.45;;;24.80;69.50;;;;;;6733946;88;20193;-78
2022/06/12 18:34:25;;;;;;;6.28;1.37;;;25.40;67.80;;;;;;6731123;88;21392;-78
2022/06/12 18:44:26;;;;;;;7.68;1.70;;;24.90;68.50;;;;;;6732632;88;20211;-79
2022/06/12 18:54:26;;;;;;;5.97;1.50;;;23.80;70.60;;;;;;6730152;88;20268;-78
2022/06/12 19:04:27;;;;;;;6.62;1.42;;;22.80;72.20;;;;;;6732316;88;20188;-79
2022/06/12 19:14:27;;;;;;;6.18;2.03;;;22.20;74.90;;;;;;6730883;88;20221;-80
2022/06/12 19:24:28;;;;;;;8.57;1.70;;;21.90;75.60;;;;;;6743184;88;20184;-79
2022/06/12 19:34:29;;;;;;;6.22;1.90;;;21.60;76.40;;;;;;6737290;88;20188;-78
2022/06/12 19:44:38;;;;;;;7.00;1.73;;;21.40;76.90;;;;;;6736283;88;20180;-77
2022/06/12 19:54:39;;;;;;;4.00;1.58;;;21.30;78.00;;;;;;6735027;88;20182;-80
2022/06/12 20:14:59;;;;;;;5.65;1.90;;;20.70;82.70;;;;;;6734470;88;20239;-77
2022/06/12 20:24:59;;;;;;;7.12;1.67;;;20.60;85.90;;;;;;6737199;88;20345;-78
2022/06/12 20:35:00;;;;;;;5.50;1.58;;;20.40;89.70;;;;;;6737086;88;20203;-78
2022/06/12 20:45:01;;;;;;;5.82;1.58;;;20.20;90.90;;;;;;6733269;88;20683;-78
2022/06/12 20:55:02;;;;;;;6.15;1.40;;;20.10;92.20;;;;;;6731945;88;20187;-79
2022/06/12 21:05:04;;;;;;;4.72;1.45;;;19.90;92.50;;;;;;6736437;88;20222;-78
2022/06/12 21:15:05;;;;;;;4.30;1.67;;;19.70;93.10;;;;;;6734901;88;20771;-78
2022/06/12 21:25:07;;;;;;;7.18;1.52;;;19.60;93.60;;;;;;6733702;88;20211;-77
2022/06/12 21:35:08;;;;;;;2.95;0.90;;;19.60;93.90;;;;;;6734822;88;20246;-77
2022/06/12 21:45:11;;;;;;;6.05;1.60;;;19.20;95.80;;;;;;6729385;88;20184;-77
2022/06/12 21:55:12;;;;;;;4.93;1.35;;;18.80;96.90;;;;;;6733983;88;20711;-77
2022/06/12 22:05:13;;;;;;;4.35;1.20;;;18.60;98.10;;;;;;6734129;88;20247;-77
2022/06/12 22:15:17;;;;;;;6.32;1.80;;;18.40;99.30;;;;;;6731938;88;20198;-78
2022/06/12 22:25:18;;;;;;;6.07;1.67;;;18.20;99.90;;;;;;6721436;88;20595;-77
2022/06/12 22:35:18;;;;;;;4.45;1.33;;;18.00;99.90;;;;;;6733276;88;20253;-78
2022/06/12 22:45:19;;;;;;;4.50;1.45;;;17.90;99.90;;;;;;6727316;88;21018;-77
2022/06/12 22:55:20;;;;;;;6.60;1.27;;;17.70;99.90;;;;;;6734228;88;20228;-78
2022/06/12 23:05:21;;;;;;;4.47;1.27;;;17.70;99.90;;;;;;6737854;88;21025;-78
2022/06/12 23:15:22;;;;;;;3.33;1.30;;;17.60;99.90;;;;;;6733012;88;20256;-77
2022/06/12 23:25:23;;;;;;;4.55;1.58;;;17.50;99.90;;;;;;6733349;88;20208;-78
2022/06/12 23:35:23;;;;;;;3.85;1.20;;;17.40;99.90;;;;;;6732829;88;20180;-77
2022/06/12 23:45:24;;;;;;;5.80;1.40;;;17.20;99.90;;;;;;6733219;88;20214;-77
2022/06/12 23:55:24;;;;;;;6.97;1.92;;;17.00;99.90;;;;;;6735432;88;20218;-77
